createdAt,value
2022-12-24T00:03:47.786Z,929.2
2022-12-24T00:08:57.468Z,928.9
2022-12-24T00:14:10.193Z,928.9
2022-12-24T00:24:42.384Z,928.9
2022-12-24T00:29:55.198Z,928.9
2022-12-24T00:40:27.979Z,929.6
2022-12-24T00:45:48.145Z,929.6
2022-12-24T01:01:51.098Z,929.4
2022-12-24T01:12:20.388Z,929.3
2022-12-24T01:23:11.911Z,929.3
2022-12-24T01:33:44.282Z,929.9
2022-12-24T01:38:54.971Z,930
2022-12-24T01:44:07.778Z,930
2022-12-24T01:49:17.641Z,930.4
2022-12-24T01:59:52.934Z,930.4
2022-12-24T02:10:25.337Z,930.4
2022-12-24T02:21:09.462Z,930.4
2022-12-24T02:42:31.121Z,930.1
2022-12-24T02:47:42.422Z,930.2
2022-12-24T02:52:53.488Z,930.3
2022-12-24T02:58:05.197Z,930.5
2022-12-24T03:08:39.255Z,930.3
2022-12-24T03:13:49.177Z,930.5
2022-12-24T03:35:05.505Z,930.5
2022-12-24T03:40:15.811Z,930.7
2022-12-24T03:45:25.702Z,931
2022-12-24T03:50:42.471Z,931
2022-12-24T03:55:53.291Z,932.1
2022-12-24T04:01:05.151Z,931.5
2022-12-24T04:11:38.305Z,932
2022-12-24T04:16:50.213Z,932.6
2022-12-24T04:22:01.238Z,933.9
2022-12-24T04:27:13.094Z,934.2
2022-12-24T04:32:24.481Z,934.4
2022-12-24T04:37:36.123Z,934.1
2022-12-24T04:42:47.314Z,934.3
2022-12-24T04:47:58.520Z,934
2022-12-24T04:53:09.832Z,933.2
2022-12-24T04:58:22.261Z,932.4
2022-12-24T05:03:34.317Z,931.7
2022-12-24T05:14:09.016Z,932.1
2022-12-24T05:19:17.960Z,932.8
2022-12-24T05:24:31.226Z,933.4
2022-12-24T05:29:42.809Z,933.6
2022-12-24T05:40:15.042Z,933.6
2022-12-24T05:45:27.129Z,935.3
2022-12-24T05:50:38.683Z,935.5
2022-12-24T05:55:54.979Z,936
2022-12-24T06:01:04.238Z,936.7
2022-12-24T06:06:17.275Z,937.2
2022-12-24T06:16:49.721Z,937.6
2022-12-24T06:27:22.439Z,937.8
2022-12-24T06:32:34.149Z,938
2022-12-24T06:37:46.740Z,938.1
2022-12-24T06:42:56.802Z,938
2022-12-24T06:53:29.496Z,937.6
2022-12-24T06:58:39.518Z,937.3
2022-12-24T07:09:13.298Z,936.8
2022-12-24T07:14:25.043Z,936.4
2022-12-24T07:19:36.948Z,936.6
2022-12-24T07:24:48.069Z,936.9
2022-12-24T07:29:59.437Z,936.9
2022-12-24T07:35:08.715Z,937
2022-12-24T07:51:07.379Z,937
2022-12-24T07:56:18.144Z,936.6
2022-12-24T08:01:30.669Z,936.4
2022-12-24T08:06:42.340Z,936.6
2022-12-24T08:11:53.685Z,937.1
2022-12-24T08:22:27.724Z,937.6
2022-12-24T08:27:37.674Z,936.8
2022-12-24T08:32:51.231Z,937.1
2022-12-24T08:38:05.149Z,937.1
2022-12-24T08:43:16.545Z,937.7
2022-12-24T08:48:29.605Z,937.9
2022-12-24T08:53:40.621Z,937.6
2022-12-24T08:58:52.740Z,938.1
2022-12-24T09:14:49.448Z,938.1
2022-12-24T09:20:00.052Z,937.5
2022-12-24T09:25:11.985Z,937.5
2022-12-24T09:30:23.878Z,937.2
2022-12-24T09:35:35.142Z,936.9
2022-12-24T09:40:45.275Z,936.9
2022-12-24T09:46:02.163Z,938.3
2022-12-24T09:51:08.584Z,938.7
2022-12-24T09:56:24.391Z,938.7
2022-12-24T10:01:37.089Z,939.1
2022-12-24T10:06:47.922Z,939.6
2022-12-24T10:11:59.761Z,939.8
2022-12-24T10:22:34.107Z,939.9
2022-12-24T10:33:08.106Z,940.1
2022-12-24T10:38:18.612Z,940.4
2022-12-24T10:43:30.412Z,940.6
2022-12-24T10:54:04.653Z,940.7
2022-12-24T10:59:13.138Z,940.6
2022-12-24T11:09:47.471Z,940.6
2022-12-24T11:25:42.400Z,940.3
2022-12-24T11:41:38.432Z,940.6
2022-12-24T11:46:50.204Z,940.4
2022-12-24T11:52:05.760Z,940.1
2022-12-24T11:57:13.735Z,940.1
2022-12-24T12:02:25.436Z,939.6
2022-12-24T12:07:36.375Z,939.4
2022-12-24T12:12:48.495Z,939.6
2022-12-24T12:18:05.088Z,939.6
2022-12-24T12:23:20.720Z,939.7
2022-12-24T12:28:38.751Z,939.7
2022-12-24T12:33:52.001Z,939.7
2022-12-24T12:49:47.355Z,939.7
2022-12-24T12:54:57.521Z,939.5
2022-12-24T13:05:30.520Z,939.3
2022-12-24T13:16:05.995Z,938.9
2022-12-24T13:21:17.801Z,938.9
2022-12-24T13:32:00.127Z,938.6
2022-12-24T13:37:10.932Z,938.2
2022-12-24T13:42:22.831Z,937.9
2022-12-24T13:47:37.381Z,937.1
2022-12-24T13:58:08.815Z,936.6
2022-12-24T14:03:22.245Z,936.6
2022-12-24T14:08:32.210Z,936.8
2022-12-24T14:13:43.739Z,936.6
2022-12-24T14:18:53.458Z,936.7
2022-12-24T14:24:04.797Z,937.2
2022-12-24T14:29:25.630Z,937.5
2022-12-24T14:34:36.788Z,937.5
2022-12-24T14:39:49.447Z,937.5
2022-12-24T14:45:01.695Z,937
2022-12-24T14:55:34.364Z,937
2022-12-24T15:00:46.971Z,937.7
2022-12-24T15:06:11.543Z,937.7
2022-12-24T15:11:24.991Z,938.3
2022-12-24T15:16:54.447Z,938.3
2022-12-24T15:22:03.055Z,937.8
2022-12-24T15:27:14.266Z,937.6
2022-12-24T15:32:31.340Z,937.6
2022-12-24T15:37:43.789Z,938
2022-12-24T15:42:55.007Z,938.3
2022-12-24T15:48:13.639Z,938.6
2022-12-24T15:53:26.192Z,939
2022-12-24T15:58:38.523Z,939.4
2022-12-24T16:03:51.013Z,939.5
2022-12-24T16:08:58.391Z,939.6
2022-12-24T16:14:08.821Z,939.7
2022-12-24T16:24:42.294Z,939.5
2022-12-24T16:30:02.374Z,939.5
2022-12-24T16:35:11.821Z,939.6
2022-12-24T16:40:28.695Z,939.8
2022-12-24T16:45:33.741Z,940.1
2022-12-24T16:50:45.833Z,940.2
2022-12-24T16:55:58.667Z,940.6
2022-12-24T17:06:31.205Z,940.9
2022-12-24T17:11:42.915Z,941.3
2022-12-24T17:16:54.899Z,941.5
2022-12-24T17:27:27.725Z,941.7
2022-12-24T17:32:43.931Z,941.7
2022-12-24T17:38:00.053Z,941.7
2022-12-24T17:43:12.429Z,941.9
2022-12-24T17:53:45.739Z,941.7
2022-12-24T17:58:58.315Z,941.8
2022-12-24T18:04:15.727Z,941.8
2022-12-24T18:14:53.849Z,942
2022-12-24T18:25:26.597Z,942
2022-12-24T18:30:43.119Z,942
2022-12-24T18:35:54.147Z,942.1
2022-12-24T18:41:10.121Z,942.1
2022-12-24T18:46:25.326Z,942.1
2022-12-24T18:56:59.001Z,941.9
2022-12-24T19:02:15.640Z,941.9
2022-12-24T19:07:30.697Z,941.9
2022-12-24T19:18:07.543Z,941.9
2022-12-24T19:28:43.977Z,942
2022-12-24T19:33:59.777Z,942
2022-12-24T19:39:10.898Z,941.9
2022-12-24T19:44:21.477Z,941.8
2022-12-24T19:49:37.791Z,941.8
2022-12-24T19:54:53.759Z,941.8
2022-12-24T20:00:16.070Z,941.8
2022-12-24T20:05:21.082Z,941.7
2022-12-24T20:15:57.251Z,941.9
2022-12-24T20:21:10.788Z,941.9
2022-12-24T20:26:27.321Z,941.9
2022-12-24T20:31:39.893Z,942
2022-12-24T20:36:50.732Z,941.8
2022-12-24T20:47:27.998Z,941.8
2022-12-24T20:52:43.213Z,941.8
2022-12-24T20:57:55.732Z,941.7
2022-12-24T21:03:10.665Z,941.7
2022-12-24T21:08:25.641Z,941.7
2022-12-24T21:13:37.175Z,941.8
2022-12-24T21:24:13.915Z,941.8
2022-12-24T21:29:23.179Z,942
2022-12-24T21:34:38.697Z,942
2022-12-24T21:39:51.152Z,941.8
2022-12-24T21:50:32.989Z,941.8
2022-12-24T21:55:46.697Z,941.8
2022-12-24T22:00:57.497Z,941.8
2022-12-24T22:06:12.446Z,941.8
2022-12-24T22:11:29.550Z,941.8
2022-12-24T22:16:46.130Z,941.8
2022-12-24T22:21:57.620Z,941.9
2022-12-24T22:27:14.602Z,941.9
2022-12-24T22:32:25.414Z,941.7
2022-12-24T22:53:42.898Z,941.7
2022-12-24T23:09:42.607Z,941.7
2022-12-24T23:14:54.552Z,941.7
2022-12-24T23:20:08.998Z,941.7
2022-12-24T23:25:24.811Z,941.7
2022-12-24T23:30:36.560Z,941.5
2022-12-24T23:51:54.896Z,941.5
